createdAt,value
2022-11-26T00:02:21.072Z,100000.47
2022-11-26T00:05:13.293Z,100048.03
2022-11-26T00:08:00.865Z,100024.00
2022-11-26T00:10:51.364Z,100048.47
2022-11-26T00:13:37.686Z,100018.16
2022-11-26T00:16:24.023Z,100013.53
2022-11-26T00:19:10.781Z,100064.41
2022-11-26T00:21:57.263Z,100058.47
2022-11-26T00:24:43.619Z,100057.50
2022-11-26T00:27:29.927Z,100058.25
2022-11-26T00:30:22.243Z,100067.78
2022-11-26T00:33:08.672Z,100074.91
2022-11-26T00:35:59.154Z,100079.13
2022-11-26T00:38:53.735Z,100078.19
2022-11-26T00:41:40.056Z,100065.22
2022-11-26T00:44:26.358Z,100052.56
2022-11-26T00:47:12.630Z,100095.19
2022-11-26T00:49:58.936Z,100091.84
2022-11-26T00:52:46.924Z,100102.31
2022-11-26T00:55:34.648Z,100105.09
2022-11-26T00:58:24.044Z,100104.16
2022-11-26T01:01:13.560Z,100108.63
2022-11-26T01:03:59.897Z,100097.09
2022-11-26T01:06:46.875Z,100123.69
2022-11-26T01:09:33.215Z,100128.81
2022-11-26T01:12:19.552Z,100096.53
2022-11-26T01:15:06.124Z,100133.13
2022-11-26T01:17:53.462Z,100137.72
2022-11-26T01:20:40.497Z,100127.13
2022-11-26T01:23:26.846Z,100112.59
2022-11-26T01:26:34.642Z,100145.31
2022-11-26T01:29:21.305Z,100136.34
2022-11-26T01:32:09.245Z,100120.63
2022-11-26T01:34:55.329Z,100144.25
2022-11-26T01:37:43.193Z,100131.22
2022-11-26T01:40:45.289Z,100152.75
2022-11-26T01:43:41.895Z,100158.53
2022-11-26T01:46:30.793Z,100170.91
2022-11-26T01:49:18.840Z,100163.81
2022-11-26T01:52:11.336Z,100157.53
2022-11-26T01:54:57.819Z,100123.69
2022-11-26T01:57:44.643Z,100168.34
2022-11-26T02:00:31.021Z,100171.53
2022-11-26T02:03:19.323Z,100138.31
2022-11-26T02:06:11.059Z,100173.00
2022-11-26T02:09:00.428Z,100172.06
2022-11-26T02:11:46.996Z,100175.13
2022-11-26T02:14:36.921Z,100186.06
2022-11-26T02:17:40.027Z,100189.25
2022-11-26T02:20:45.060Z,100158.97
2022-11-26T02:23:42.737Z,100189.22
2022-11-26T02:26:47.469Z,100199.38
2022-11-26T02:29:55.140Z,100204.59
2022-11-26T02:32:59.223Z,100195.63
2022-11-26T02:35:50.308Z,100208.69
2022-11-26T02:38:38.233Z,100179.91
2022-11-26T02:41:24.801Z,100210.19
2022-11-26T02:44:12.120Z,100199.38
2022-11-26T02:47:06.260Z,100233.81
2022-11-26T02:49:54.097Z,100230.63
2022-11-26T02:52:42.591Z,100204.16
2022-11-26T02:55:33.621Z,100242.41
2022-11-26T02:58:20.486Z,100215.16
2022-11-26T03:01:15.571Z,100254.56
2022-11-26T03:04:07.840Z,100251.47
2022-11-26T03:06:57.661Z,100260.06
2022-11-26T03:09:56.821Z,100258.28
2022-11-26T03:12:42.944Z,100220.00
2022-11-26T03:15:29.087Z,100261.09
2022-11-26T03:18:15.621Z,100229.59
2022-11-26T03:21:02.112Z,100261.50
2022-11-26T03:23:48.321Z,100230.81
2022-11-26T03:26:34.568Z,100249.19
2022-11-26T03:29:20.890Z,100214.75
2022-11-26T03:32:07.924Z,100267.97
2022-11-26T03:34:54.299Z,100231.97
2022-11-26T03:37:40.598Z,100271.47
2022-11-26T03:40:26.832Z,100280.09
2022-11-26T03:43:12.908Z,100272.47
2022-11-26T03:45:59.340Z,100281.38
2022-11-26T03:48:45.901Z,100253.63
2022-11-26T03:51:32.462Z,100262.09
2022-11-26T03:54:19.087Z,100266.94
2022-11-26T03:57:05.349Z,100252.56
2022-11-26T03:59:51.681Z,100284.91
2022-11-26T04:02:37.973Z,100263.31
2022-11-26T04:05:24.489Z,100272.47
2022-11-26T04:08:10.974Z,100249.53
2022-11-26T04:10:57.597Z,100284.78
2022-11-26T04:13:43.909Z,100280.31
2022-11-26T04:16:30.256Z,100285.91
2022-11-26T04:19:16.683Z,100255.56
2022-11-26T04:22:03.151Z,100269.50
2022-11-26T04:24:49.559Z,100267.63
2022-11-26T04:27:35.895Z,100256.47
2022-11-26T04:30:22.900Z,100283.38
2022-11-26T04:33:09.740Z,100279.09
2022-11-26T04:35:56.389Z,100264.53
2022-11-26T04:38:42.637Z,100286.28
2022-11-26T04:41:28.897Z,100297.00
2022-11-26T04:44:15.177Z,100298.06
2022-11-26T04:47:01.449Z,100293.81
2022-11-26T04:49:47.816Z,100284.41
2022-11-26T04:52:33.936Z,100261.19
2022-11-26T04:55:20.240Z,100237.06
2022-11-26T04:58:07.140Z,100263.84
2022-11-26T05:00:53.486Z,100290.53
2022-11-26T05:03:40.079Z,100261.69
2022-11-26T05:06:26.417Z,100294.31
2022-11-26T05:09:12.438Z,100278.97
2022-11-26T05:11:58.673Z,100294.34
2022-11-26T05:14:44.866Z,100280.56
2022-11-26T05:17:31.488Z,100313.84
2022-11-26T05:20:17.984Z,100316.00
2022-11-26T05:23:04.639Z,100320.31
2022-11-26T05:25:51.342Z,100297.34
2022-11-26T05:28:37.824Z,100324.22
2022-11-26T05:31:24.025Z,100298.03
2022-11-26T05:34:10.359Z,100311.59
2022-11-26T05:36:56.808Z,100288.84
2022-11-26T05:39:43.013Z,100310.41
2022-11-26T05:42:29.470Z,100331.69
2022-11-26T05:45:16.502Z,100297.94
2022-11-26T05:48:02.816Z,100332.84
2022-11-26T05:50:54.331Z,100305.97
2022-11-26T05:53:41.152Z,100341.50
2022-11-26T05:56:27.585Z,100344.69
2022-11-26T05:59:13.793Z,100336.50
2022-11-26T06:02:00.126Z,100324.47
2022-11-26T06:04:46.772Z,100333.72
2022-11-26T06:07:33.132Z,100353.41
2022-11-26T06:10:19.809Z,100354.66
2022-11-26T06:13:06.224Z,100326.06
2022-11-26T06:15:52.649Z,100311.22
2022-11-26T06:18:39.622Z,100365.34
2022-11-26T06:21:25.879Z,100352.09
2022-11-26T06:24:11.963Z,100360.38
2022-11-26T06:26:58.183Z,100364.88
2022-11-26T06:29:44.995Z,100368.19
2022-11-26T06:32:31.853Z,100374.69
2022-11-26T06:35:18.329Z,100371.88
2022-11-26T06:38:05.124Z,100323.09
2022-11-26T06:41:02.916Z,100357.97
2022-11-26T06:43:49.660Z,100374.53
2022-11-26T06:46:36.447Z,100375.97
2022-11-26T06:49:22.800Z,100393.16
2022-11-26T06:52:09.340Z,100374.38
2022-11-26T06:54:55.462Z,100374.06
2022-11-26T06:57:41.699Z,100407.47
2022-11-26T07:00:28.070Z,100426.59
2022-11-26T07:03:14.324Z,100432.03
2022-11-26T07:06:00.680Z,100440.66
2022-11-26T07:08:48.095Z,100404.28
2022-11-26T07:11:35.669Z,100446.38
2022-11-26T07:14:22.627Z,100449.56
2022-11-26T07:17:09.537Z,100450.53
2022-11-26T07:19:55.732Z,100415.31
2022-11-26T07:22:41.984Z,100468.13
2022-11-26T07:25:29.707Z,100461.94
2022-11-26T07:28:16.241Z,100425.94
2022-11-26T07:31:16.245Z,100483.47
2022-11-26T07:34:03.895Z,100473.56
2022-11-26T07:36:53.973Z,100494.94
2022-11-26T07:39:43.049Z,100453.38
2022-11-26T07:42:33.676Z,100457.28
2022-11-26T07:45:20.261Z,100401.13
2022-11-26T07:48:06.989Z,100494.22
2022-11-26T07:50:53.377Z,100496.34
2022-11-26T07:53:39.642Z,100479.41
2022-11-26T07:56:27.161Z,100496.41
2022-11-26T07:59:13.668Z,100496.91
2022-11-26T08:02:00.261Z,100497.19
2022-11-26T08:04:47.078Z,100501.94
2022-11-26T08:07:35.038Z,100501.50
2022-11-26T08:10:21.656Z,100491.72
2022-11-26T08:13:08.197Z,100467.50
2022-11-26T08:15:54.477Z,100475.41
2022-11-26T08:18:41.975Z,100491.94
2022-11-26T08:21:28.811Z,100503.84
2022-11-26T08:24:18.919Z,100503.53
2022-11-26T08:27:05.482Z,100494.59
2022-11-26T08:29:51.921Z,100493.06
2022-11-26T08:32:38.203Z,100519.59
2022-11-26T08:35:38.626Z,100523.19
2022-11-26T08:38:31.583Z,100514.69
2022-11-26T08:41:18.119Z,100513.56
2022-11-26T08:44:07.083Z,100459.41
2022-11-26T08:46:54.286Z,100501.66
2022-11-26T08:49:40.785Z,100460.00
2022-11-26T08:52:27.495Z,100509.97
2022-11-26T08:55:14.107Z,100486.50
2022-11-26T08:58:00.687Z,100464.84
2022-11-26T09:00:47.263Z,100516.16
2022-11-26T09:03:33.518Z,100507.66
2022-11-26T09:06:21.312Z,100522.31
2022-11-26T09:09:15.057Z,100523.25
2022-11-26T09:12:02.469Z,100532.34
2022-11-26T09:14:49.069Z,100521.56
2022-11-26T09:17:35.633Z,100531.38
2022-11-26T09:20:22.304Z,100488.69
2022-11-26T09:23:08.743Z,100536.00
2022-11-26T09:25:55.422Z,100504.03
2022-11-26T09:28:41.773Z,100510.78
2022-11-26T09:31:28.327Z,100502.38
2022-11-26T09:34:15.808Z,100545.25
2022-11-26T09:37:02.574Z,100550.56
2022-11-26T09:39:50.745Z,100520.94
2022-11-26T09:42:59.234Z,100551.91
2022-11-26T09:45:55.701Z,100521.94
2022-11-26T09:48:43.265Z,100516.34
2022-11-26T09:51:32.848Z,100532.69
2022-11-26T09:54:23.038Z,100535.19
2022-11-26T09:57:21.998Z,100530.84
2022-11-26T10:00:32.774Z,100542.56
2022-11-26T10:03:24.468Z,100540.19
2022-11-26T10:06:19.801Z,100545.59
2022-11-26T10:09:23.364Z,100546.16
2022-11-26T10:12:25.534Z,100538.25
2022-11-26T10:15:26.118Z,100547.31
2022-11-26T10:18:42.384Z,100542.84
2022-11-26T10:21:57.007Z,100544.63
2022-11-26T10:24:42.010Z,100528.22
2022-11-26T10:27:34.297Z,100527.00
2022-11-26T10:30:30.689Z,100499.81
2022-11-26T10:33:20.248Z,100496.81
2022-11-26T10:36:16.446Z,100507.66
2022-11-26T10:39:03.310Z,100521.56
2022-11-26T10:41:50.156Z,100527.03
2022-11-26T10:44:40.785Z,100534.59
2022-11-26T10:47:29.827Z,100490.00
2022-11-26T10:50:46.782Z,100497.34
2022-11-26T10:54:00.630Z,100526.22
2022-11-26T10:56:47.806Z,100480.00
2022-11-26T10:59:43.447Z,100508.50
2022-11-26T11:02:32.377Z,100507.63
2022-11-26T11:05:20.374Z,100483.88
2022-11-26T11:08:13.042Z,100514.13
2022-11-26T11:11:02.392Z,100476.66
2022-11-26T11:13:49.784Z,100481.06
2022-11-26T11:16:43.253Z,100504.59
2022-11-26T11:19:30.733Z,100471.66
2022-11-26T11:22:20.985Z,100504.09
2022-11-26T11:25:21.900Z,100486.59
2022-11-26T11:28:18.366Z,100486.94
2022-11-26T11:31:17.979Z,100431.50
2022-11-26T11:34:33.885Z,100492.72
2022-11-26T11:37:21.859Z,100488.94
2022-11-26T11:40:18.139Z,100475.41
2022-11-26T11:43:06.976Z,100500.81
2022-11-26T11:46:13.547Z,100491.19
2022-11-26T11:49:16.210Z,100448.69
2022-11-26T11:52:35.711Z,100492.25
2022-11-26T11:56:02.700Z,100480.97
2022-11-26T11:59:47.495Z,100490.44
2022-11-26T12:03:04.882Z,100463.81
2022-11-26T12:06:00.505Z,100476.09
2022-11-26T12:08:55.786Z,100470.41
2022-11-26T12:11:52.112Z,100446.16
2022-11-26T12:14:47.720Z,100433.97
2022-11-26T12:17:43.666Z,100471.94
2022-11-26T12:20:41.704Z,100472.66
2022-11-26T12:23:53.512Z,100472.00
2022-11-26T12:26:39.892Z,100471.81
2022-11-26T12:29:36.961Z,100443.50
2022-11-26T12:32:49.325Z,100473.88
2022-11-26T12:35:40.128Z,100475.06
2022-11-26T12:38:34.896Z,100444.94
2022-11-26T12:41:27.355Z,100465.41
2022-11-26T12:44:22.330Z,100448.81
2022-11-26T12:47:26.056Z,100458.47
2022-11-26T12:50:20.854Z,100437.00
2022-11-26T12:53:51.720Z,100457.53
2022-11-26T12:56:50.924Z,100455.03
2022-11-26T12:59:44.098Z,100454.25
2022-11-26T13:02:32.000Z,100417.09
2022-11-26T13:05:20.802Z,100459.16
2022-11-26T13:08:26.485Z,100446.47
2022-11-26T13:11:31.333Z,100454.16
2022-11-26T13:14:35.146Z,100437.31
2022-11-26T13:17:37.159Z,100455.72
2022-11-26T13:20:52.420Z,100419.75
2022-11-26T13:23:50.609Z,100460.63
2022-11-26T13:26:45.904Z,100457.97
2022-11-26T13:29:35.678Z,100455.97
2022-11-26T13:32:42.802Z,100436.66
2022-11-26T13:35:51.210Z,100447.25
2022-11-26T13:38:53.170Z,100448.44
2022-11-26T13:42:14.821Z,100453.38
2022-11-26T13:45:45.352Z,100413.69
2022-11-26T13:48:40.428Z,100446.00
2022-11-26T13:51:30.925Z,100404.66
2022-11-26T13:54:41.905Z,100449.19
2022-11-26T13:57:39.441Z,100440.34
2022-11-26T14:00:33.667Z,100439.22
2022-11-26T14:03:45.928Z,100442.13
2022-11-26T14:06:32.768Z,100439.03
2022-11-26T14:09:45.156Z,100330.16
2022-11-26T14:13:02.758Z,100457.13
2022-11-26T14:15:55.503Z,100441.19
2022-11-26T14:19:02.816Z,100435.19
2022-11-26T14:21:59.647Z,100456.44
2022-11-26T14:24:58.926Z,100449.94
2022-11-26T14:27:55.613Z,100436.72
2022-11-26T14:30:41.748Z,100454.22
2022-11-26T14:33:30.350Z,100435.63
2022-11-26T14:36:23.000Z,100458.50
2022-11-26T14:39:09.279Z,100469.78
2022-11-26T14:42:03.815Z,100471.53
2022-11-26T14:45:15.686Z,100475.34
2022-11-26T14:48:03.943Z,100468.91
2022-11-26T14:50:51.653Z,100445.59
2022-11-26T14:53:46.803Z,100438.47
2022-11-26T14:56:41.831Z,100467.28
2022-11-26T14:59:31.935Z,100440.38
2022-11-26T15:02:23.889Z,100460.19
2022-11-26T15:05:15.183Z,100435.06
2022-11-26T15:08:04.754Z,100471.09
2022-11-26T15:11:21.371Z,100476.31
2022-11-26T15:14:29.783Z,100436.91
2022-11-26T15:17:19.251Z,100475.94
2022-11-26T15:20:08.355Z,100480.13
2022-11-26T15:22:58.290Z,100476.75
2022-11-26T15:25:50.924Z,100475.03
2022-11-26T15:28:38.682Z,100469.16
2022-11-26T15:31:25.381Z,100451.75
2022-11-26T15:34:15.268Z,100444.84
2022-11-26T15:37:01.579Z,100437.00
2022-11-26T15:39:47.829Z,100463.28
2022-11-26T15:42:34.344Z,100449.00
2022-11-26T15:45:23.038Z,100463.69
2022-11-26T15:48:51.943Z,100462.56
2022-11-26T15:51:49.956Z,100467.75
2022-11-26T15:55:04.550Z,100464.31
2022-11-26T15:57:51.729Z,100457.47
2022-11-26T16:00:42.269Z,100421.88
2022-11-26T16:03:41.325Z,100451.66
2022-11-26T16:06:32.390Z,100447.22
2022-11-26T16:09:34.348Z,100452.63
2022-11-26T16:12:33.195Z,100454.59
2022-11-26T16:15:21.020Z,100456.38
2022-11-26T16:18:16.393Z,100451.22
2022-11-26T16:21:07.298Z,100428.28
2022-11-26T16:24:07.299Z,100460.53
2022-11-26T16:26:58.248Z,100467.41
2022-11-26T16:29:45.455Z,100450.31
2022-11-26T16:32:31.772Z,100432.28
2022-11-26T16:35:44.218Z,100445.38
2022-11-26T16:38:26.524Z,100465.00
2022-11-26T16:41:13.876Z,100458.59
2022-11-26T16:44:00.273Z,100436.31
2022-11-26T16:46:48.826Z,100456.69
2022-11-26T16:49:35.015Z,100461.16
2022-11-26T16:52:21.892Z,100425.66
2022-11-26T16:55:13.735Z,100446.66
2022-11-26T16:58:02.334Z,100437.72
2022-11-26T17:00:51.099Z,100424.38
2022-11-26T17:03:37.690Z,100432.59
2022-11-26T17:06:27.872Z,100465.88
2022-11-26T17:09:19.267Z,100459.03
2022-11-26T17:12:06.509Z,100464.75
2022-11-26T17:17:45.053Z,100467.44
2022-11-26T17:20:31.483Z,100438.75
2022-11-26T17:23:18.739Z,100442.84
2022-11-26T17:26:31.688Z,100467.84
2022-11-26T17:29:17.995Z,100453.22
2022-11-26T17:32:04.992Z,100465.78
2022-11-26T17:34:51.584Z,100452.47
2022-11-26T17:37:38.206Z,100456.59
2022-11-26T17:40:24.950Z,100467.53
2022-11-26T17:43:13.273Z,100442.72
2022-11-26T17:46:02.137Z,100458.00
2022-11-26T17:48:49.960Z,100463.34
2022-11-26T17:51:37.376Z,100456.63
2022-11-26T17:54:23.559Z,100416.59
2022-11-26T17:57:11.194Z,100409.97
2022-11-26T17:59:57.876Z,100421.59
2022-11-26T18:02:46.223Z,100477.13
2022-11-26T18:05:33.061Z,100473.97
2022-11-26T18:08:20.494Z,100434.97
2022-11-26T18:11:06.844Z,100479.13
2022-11-26T18:13:53.308Z,100456.00
2022-11-26T18:16:40.188Z,100474.31
2022-11-26T18:19:26.955Z,100462.94
2022-11-26T18:22:16.704Z,100469.47
2022-11-26T18:25:03.473Z,100457.31
2022-11-26T18:27:51.299Z,100468.16
2022-11-26T18:30:37.649Z,100471.94
2022-11-26T18:33:24.245Z,100463.22
2022-11-26T18:36:10.924Z,100435.25
2022-11-26T18:38:57.634Z,100462.41
2022-11-26T18:41:43.952Z,100476.56
2022-11-26T18:44:30.341Z,100476.72
2022-11-26T18:47:16.773Z,100470.19
2022-11-26T18:50:03.680Z,100478.81
2022-11-26T18:52:49.835Z,100461.00
2022-11-26T18:55:39.924Z,100481.00
2022-11-26T18:58:26.709Z,100475.25
2022-11-26T19:01:14.255Z,100477.00
2022-11-26T19:04:01.901Z,100421.28
2022-11-26T19:06:48.276Z,100474.75
2022-11-26T19:09:34.587Z,100467.66
2022-11-26T19:12:20.855Z,100458.28
2022-11-26T19:15:08.328Z,100471.72
2022-11-26T19:17:55.082Z,100469.19
2022-11-26T19:20:56.333Z,100474.13
2022-11-26T19:23:42.976Z,100468.50
